createdAt,value
2022-09-28T00:01:27.086Z,88.70
2022-09-28T00:04:04.843Z,88.74
2022-09-28T00:06:33.080Z,88.84
2022-09-28T00:09:01.869Z,88.65
2022-09-28T00:11:29.222Z,88.90
2022-09-28T00:14:03.365Z,88.77
2022-09-28T00:16:35.497Z,88.94
2022-09-28T00:19:09.912Z,88.71
2022-09-28T00:21:44.599Z,88.63
2022-09-28T00:24:27.477Z,88.70
2022-09-28T00:26:57.346Z,89.16
2022-09-28T00:29:34.840Z,88.52
2022-09-28T00:32:06.881Z,88.36
2022-09-28T00:34:37.517Z,88.67
2022-09-28T00:37:06.451Z,88.44
2022-09-28T00:39:33.233Z,88.39
2022-09-28T00:42:01.166Z,88.66
2022-09-28T00:44:35.922Z,88.61
2022-09-28T00:47:14.882Z,88.55
2022-09-28T00:49:48.451Z,88.75
2022-09-28T00:52:22.536Z,88.38
2022-09-28T00:54:53.457Z,88.77
2022-09-28T00:57:28.024Z,88.78
2022-09-28T01:02:51.417Z,88.83
2022-09-28T01:05:25.681Z,88.59
2022-09-28T01:07:56.968Z,88.52
2022-09-28T01:10:25.204Z,88.48
2022-09-28T01:12:55.580Z,88.57
2022-09-28T01:15:26.813Z,88.25
2022-09-28T01:18:03.475Z,88.49
2022-09-28T01:21:17.042Z,88.40
2022-09-28T01:23:54.697Z,88.40
2022-09-28T01:26:51.055Z,88.33
2022-09-28T01:29:48.713Z,88.34
2022-09-28T01:32:21.909Z,88.54
2022-09-28T01:35:05.621Z,88.47
2022-09-28T01:37:53.717Z,88.67
2022-09-28T01:40:24.749Z,88.50
2022-09-28T01:43:06.648Z,88.42
2022-09-28T01:46:01.083Z,88.47
2022-09-28T01:48:38.095Z,88.45
2022-09-28T01:51:18.559Z,88.33
2022-09-28T01:53:53.325Z,88.20
2022-09-28T01:56:31.973Z,88.25
2022-09-28T01:59:29.641Z,88.35
2022-09-28T02:02:29.571Z,88.32
2022-09-28T02:05:17.519Z,88.17
2022-09-28T02:08:23.080Z,88.28
2022-09-28T02:11:14.267Z,88.39
2022-09-28T02:14:11.253Z,88.22
2022-09-28T02:16:48.314Z,87.98
2022-09-28T02:19:19.170Z,88.00
2022-09-28T02:22:23.336Z,87.97
2022-09-28T02:25:09.804Z,88.14
2022-09-28T02:27:53.952Z,88.02
2022-09-28T02:30:47.137Z,88.16
2022-09-28T02:33:26.742Z,88.08
2022-09-28T02:35:55.608Z,88.05
2022-09-28T02:38:26.655Z,88.02
2022-09-28T02:47:05.068Z,87.81
2022-09-28T02:49:48.909Z,87.72
2022-09-28T02:52:36.917Z,87.91
2022-09-28T02:55:11.149Z,87.87
2022-09-28T03:01:37.217Z,88.00
2022-09-28T03:04:18.072Z,88.04
2022-09-28T03:07:16.266Z,88.50
2022-09-28T03:12:48.012Z,88.11
2022-09-28T03:15:26.649Z,88.27
2022-09-28T03:17:55.795Z,88.28
2022-09-28T03:20:31.021Z,88.24
2022-09-28T03:25:57.118Z,88.20
2022-09-28T03:28:25.815Z,88.54
2022-09-28T03:30:53.154Z,88.59
2022-09-28T03:33:45.095Z,88.16
2022-09-28T03:36:15.003Z,88.47
2022-09-28T03:39:09.039Z,88.75
2022-09-28T03:41:37.036Z,88.72
2022-09-28T03:44:29.065Z,88.63
2022-09-28T03:46:57.089Z,89.13
2022-09-28T03:49:25.057Z,89.25
2022-09-28T03:51:53.121Z,89.20
2022-09-28T03:54:26.162Z,89.10
2022-09-28T03:56:53.142Z,89.08
2022-09-28T03:59:21.198Z,88.95
2022-09-28T04:01:50.291Z,89.01
2022-09-28T04:04:17.624Z,89.02
2022-09-28T04:06:47.025Z,88.92
2022-09-28T04:09:15.217Z,88.86
2022-09-28T04:12:03.346Z,89.30
2022-09-28T04:14:58.312Z,88.96
2022-09-28T04:17:35.484Z,88.95
2022-09-28T04:20:12.537Z,89.13
2022-09-28T04:22:45.044Z,89.17
2022-09-28T04:25:13.136Z,89.14
2022-09-28T04:27:59.356Z,89.21
2022-09-28T04:33:19.081Z,88.47
2022-09-28T04:35:47.040Z,88.38
2022-09-28T04:38:15.026Z,88.30
2022-09-28T04:41:07.539Z,88.50
2022-09-28T04:44:00.072Z,88.42
2022-09-28T04:46:27.161Z,88.55
2022-09-28T04:49:15.179Z,88.92
2022-09-28T04:51:57.033Z,88.92
2022-09-28T04:54:25.062Z,88.75
2022-09-28T04:56:58.373Z,88.63
2022-09-28T04:59:31.026Z,88.64
2022-09-28T05:02:04.095Z,88.98
2022-09-28T05:05:07.523Z,88.77
2022-09-28T05:07:52.484Z,89.00
2022-09-28T05:10:20.999Z,88.95
2022-09-28T05:12:54.017Z,88.83
2022-09-28T05:15:21.086Z,88.86
2022-09-28T05:17:49.018Z,88.75
2022-09-28T05:20:36.456Z,88.68
2022-09-28T05:23:03.058Z,88.79
2022-09-28T05:26:00.040Z,89.04
2022-09-28T05:28:31.434Z,89.06
2022-09-28T05:31:35.143Z,88.72
2022-09-28T05:34:21.202Z,88.45
2022-09-28T05:36:54.294Z,88.68
2022-09-28T05:45:06.423Z,88.62
2022-09-28T05:47:39.792Z,88.94
2022-09-28T05:50:33.789Z,88.69
2022-09-28T05:53:12.556Z,88.95
2022-09-28T05:55:41.057Z,89.00
2022-09-28T05:58:09.605Z,88.75
2022-09-28T06:00:42.953Z,88.60
2022-09-28T06:03:15.094Z,88.85
2022-09-28T06:05:43.158Z,88.84
2022-09-28T06:08:11.559Z,88.39
2022-09-28T06:10:43.262Z,89.06
2022-09-28T06:16:10.906Z,88.62
2022-09-28T06:19:04.025Z,88.51
2022-09-28T06:21:39.046Z,88.84
2022-09-28T06:24:07.165Z,89.57
2022-09-28T06:26:42.180Z,89.25
2022-09-28T06:29:20.468Z,88.98
2022-09-28T06:31:49.068Z,89.09
2022-09-28T06:34:19.260Z,89.35
2022-09-28T06:36:47.818Z,88.81
2022-09-28T06:39:17.267Z,88.56
2022-09-28T06:41:45.050Z,88.71
2022-09-28T06:44:39.424Z,88.39
2022-09-28T06:47:25.095Z,88.60
2022-09-28T06:50:21.212Z,88.67
2022-09-28T06:53:06.940Z,88.32
2022-09-28T06:55:51.592Z,88.42
2022-09-28T06:58:20.679Z,88.24
2022-09-28T07:00:51.855Z,88.25
2022-09-28T07:03:21.625Z,88.44
2022-09-28T07:05:59.317Z,88.04
2022-09-28T07:12:26.296Z,88.22
2022-09-28T07:15:10.890Z,88.20
2022-09-28T07:17:54.315Z,89.98
2022-09-28T07:20:44.738Z,89.47
2022-09-28T07:23:19.813Z,88.69
2022-09-28T07:26:09.003Z,88.19
2022-09-28T07:29:03.405Z,87.93
2022-09-28T07:31:35.161Z,88.45
2022-09-28T07:34:27.232Z,88.10
2022-09-28T07:37:13.437Z,87.70
2022-09-28T07:42:51.168Z,87.73
2022-09-28T07:45:20.749Z,87.76
2022-09-28T07:47:54.330Z,87.54
2022-09-28T07:50:33.087Z,87.46
2022-09-28T07:53:20.287Z,87.17
2022-09-28T07:56:09.360Z,87.17
2022-09-28T07:59:01.103Z,86.88
2022-09-28T08:01:41.177Z,86.25
2022-09-28T08:04:11.263Z,86.75
2022-09-28T08:06:41.197Z,86.88
2022-09-28T08:09:12.616Z,86.81
2022-09-28T08:12:15.036Z,86.63
2022-09-28T08:15:02.601Z,86.91
2022-09-28T08:17:48.365Z,86.79
2022-09-28T08:20:39.653Z,86.71
2022-09-28T08:23:09.804Z,86.95
2022-09-28T08:25:41.304Z,87.29
2022-09-28T08:28:21.868Z,86.86
2022-09-28T08:30:51.800Z,87.02
2022-09-28T08:33:39.194Z,86.66
2022-09-28T08:36:25.277Z,86.81
2022-09-28T08:39:01.198Z,86.82
2022-09-28T08:42:16.067Z,86.81
2022-09-28T08:45:10.882Z,87.15
2022-09-28T08:51:44.640Z,86.29
2022-09-28T08:54:50.272Z,86.25
2022-09-28T08:57:32.186Z,86.12
2022-09-28T09:00:01.914Z,86.32
2022-09-28T09:02:39.714Z,86.13
2022-09-28T09:05:19.962Z,85.90
2022-09-28T09:08:39.418Z,85.63
2022-09-28T09:12:10.151Z,85.69
2022-09-28T09:15:06.999Z,86.11
2022-09-28T09:17:47.630Z,86.21
2022-09-28T09:20:53.990Z,85.86
2022-09-28T09:23:49.766Z,86.76
2022-09-28T09:26:26.658Z,85.56
2022-09-28T09:29:17.993Z,85.56
2022-09-28T09:32:20.027Z,85.10
2022-09-28T09:35:28.287Z,85.07
2022-09-28T09:38:40.167Z,85.58
2022-09-28T09:41:30.105Z,85.97
2022-09-28T09:44:33.581Z,85.73
2022-09-28T09:47:26.455Z,84.93
2022-09-28T09:50:08.310Z,84.00
2022-09-28T09:52:47.823Z,83.78
2022-09-28T09:55:39.384Z,83.21
2022-09-28T09:58:53.413Z,84.47
2022-09-28T10:04:46.842Z,83.72
2022-09-28T10:07:46.205Z,82.85
2022-09-28T10:10:37.998Z,83.58
2022-09-28T10:13:11.272Z,83.48
2022-09-28T10:15:41.336Z,82.85
2022-09-28T10:18:24.043Z,82.37
2022-09-28T10:21:18.220Z,82.22
2022-09-28T10:24:02.703Z,82.38
2022-09-28T10:26:44.267Z,83.23
2022-09-28T10:29:20.603Z,82.24
2022-09-28T10:31:51.076Z,83.05
2022-09-28T10:34:37.069Z,81.72
2022-09-28T10:37:13.865Z,82.94
2022-09-28T10:40:40.468Z,84.55
2022-09-28T10:43:18.166Z,83.10
2022-09-28T10:45:47.484Z,82.32
2022-09-28T10:48:21.361Z,84.47
2022-09-28T10:51:18.711Z,83.21
2022-09-28T10:54:02.538Z,81.91
2022-09-28T10:56:46.194Z,81.20
2022-09-28T10:59:37.839Z,81.47
2022-09-28T11:02:33.610Z,81.70
2022-09-28T11:05:28.060Z,82.39
2022-09-28T11:08:03.851Z,81.36
2022-09-28T11:10:39.369Z,81.44
2022-09-28T11:13:15.162Z,81.86
2022-09-28T11:15:50.217Z,79.96
2022-09-28T11:18:31.528Z,79.41
2022-09-28T11:24:19.925Z,80.48
2022-09-28T11:27:00.075Z,79.54
2022-09-28T11:29:45.406Z,80.71
2022-09-28T11:32:22.939Z,81.24
2022-09-28T11:35:19.743Z,78.37
2022-09-28T11:38:02.705Z,80.71
2022-09-28T11:41:09.211Z,80.13
2022-09-28T11:43:53.243Z,77.84
2022-09-28T11:46:33.905Z,80.41
2022-09-28T11:49:32.762Z,78.55
2022-09-28T11:52:14.732Z,79.21
2022-09-28T11:55:28.542Z,79.49
2022-09-28T11:58:04.658Z,79.67
2022-09-28T12:03:50.522Z,78.07
2022-09-28T12:06:31.415Z,80.18
2022-09-28T12:09:09.392Z,77.84
2022-09-28T12:12:03.866Z,79.67
2022-09-28T12:14:46.426Z,79.20
2022-09-28T12:17:25.835Z,79.65
2022-09-28T12:20:30.508Z,77.09
2022-09-28T12:23:09.871Z,77.54
2022-09-28T12:25:57.889Z,76.13
2022-09-28T12:28:37.123Z,75.21
2022-09-28T12:31:16.922Z,75.06
2022-09-28T12:33:48.379Z,73.32
2022-09-28T12:36:30.676Z,77.71
2022-09-28T12:39:46.651Z,76.13
2022-09-28T12:42:54.616Z,76.29
2022-09-28T12:53:02.261Z,72.77
2022-09-28T12:55:41.741Z,73.90
2022-09-28T12:58:28.727Z,74.35
2022-09-28T13:01:30.809Z,73.21
2022-09-28T13:04:11.467Z,74.57
2022-09-28T13:07:08.559Z,74.45
2022-09-28T13:10:24.493Z,73.93
2022-09-28T13:13:29.115Z,73.33
2022-09-28T13:16:36.869Z,73.89
2022-09-28T13:19:16.846Z,72.25
2022-09-28T13:21:56.525Z,73.03
2022-09-28T13:24:33.855Z,73.44
2022-09-28T13:27:18.575Z,71.81
2022-09-28T13:29:49.793Z,69.56
2022-09-28T13:32:18.368Z,68.78
2022-09-28T13:34:51.221Z,70.29
2022-09-28T13:37:25.637Z,71.61
2022-09-28T13:39:58.141Z,70.09
2022-09-28T13:42:47.518Z,67.42
2022-09-28T13:45:21.137Z,68.00
2022-09-28T13:48:16.327Z,65.62
2022-09-28T13:51:11.748Z,68.63
2022-09-28T13:54:06.814Z,66.52
2022-09-28T13:56:57.892Z,68.63
2022-09-28T13:59:29.791Z,69.34
2022-09-28T14:02:28.576Z,69.08
2022-09-28T14:05:06.072Z,69.07
2022-09-28T14:07:36.112Z,68.71
2022-09-28T14:10:18.066Z,70.28
2022-09-28T14:12:51.272Z,69.33
2022-09-28T14:15:28.960Z,70.39
2022-09-28T14:18:12.536Z,72.28
2022-09-28T14:21:07.120Z,70.79
2022-09-28T14:24:01.881Z,70.58
2022-09-28T14:26:48.005Z,71.35
2022-09-28T14:29:28.676Z,68.90
2022-09-28T14:35:26.199Z,71.76
2022-09-28T14:38:17.439Z,70.55
2022-09-28T14:41:31.452Z,69.21
2022-09-28T14:44:02.493Z,72.21
2022-09-28T14:46:43.623Z,72.02
2022-09-28T14:49:17.470Z,71.44
2022-09-28T14:51:48.024Z,72.09
2022-09-28T14:54:24.818Z,73.19
2022-09-28T14:57:06.879Z,75.39
2022-09-28T14:59:49.546Z,75.84
2022-09-28T15:02:33.014Z,76.18
2022-09-28T15:05:33.766Z,75.75
2022-09-28T15:08:01.872Z,73.80
2022-09-28T15:10:58.024Z,76.24
2022-09-28T15:14:10.874Z,75.63
2022-09-28T15:16:39.132Z,77.71
2022-09-28T15:19:23.651Z,75.65
2022-09-28T15:21:51.288Z,76.03
2022-09-28T15:24:40.577Z,75.46
2022-09-28T15:27:18.954Z,76.96
2022-09-28T15:32:56.709Z,78.01
2022-09-28T15:35:31.856Z,78.48
2022-09-28T15:37:59.115Z,77.35
2022-09-28T15:40:39.418Z,76.28
2022-09-28T15:43:32.901Z,77.80
2022-09-28T15:46:18.347Z,78.01
2022-09-28T15:48:52.754Z,78.50
2022-09-28T15:51:27.989Z,79.85
2022-09-28T15:53:59.570Z,79.19
2022-09-28T15:56:28.641Z,79.37
2022-09-28T15:59:15.268Z,79.25
2022-09-28T16:04:45.461Z,77.98
2022-09-28T16:07:13.030Z,77.81
2022-09-28T16:10:00.930Z,79.62
2022-09-28T16:12:40.860Z,79.89
2022-09-28T16:15:21.356Z,79.52
2022-09-28T16:17:57.818Z,78.98
2022-09-28T16:26:35.730Z,81.11
2022-09-28T16:29:09.700Z,81.26
2022-09-28T16:31:37.908Z,81.28
2022-09-28T16:34:11.740Z,81.47
2022-09-28T16:37:31.158Z,81.29
2022-09-28T16:39:59.032Z,81.35
2022-09-28T16:42:28.021Z,81.57
2022-09-28T16:45:03.884Z,81.60
2022-09-28T16:47:39.652Z,81.24
2022-09-28T16:50:07.768Z,81.14
2022-09-28T16:52:56.812Z,81.24
2022-09-28T16:55:43.129Z,81.32
2022-09-28T16:58:44.021Z,81.13
2022-09-28T17:01:12.550Z,81.06
2022-09-28T17:03:46.640Z,81.13
2022-09-28T17:06:16.667Z,81.29
2022-09-28T17:08:45.233Z,81.24
2022-09-28T17:11:24.531Z,81.47
2022-09-28T17:13:59.064Z,81.78
2022-09-28T17:16:57.637Z,81.91
2022-09-28T17:19:29.844Z,81.70
2022-09-28T17:22:03.407Z,82.02
2022-09-28T17:24:56.823Z,82.27
2022-09-28T17:27:25.056Z,82.15
2022-09-28T17:29:53.101Z,82.26
2022-09-28T17:32:25.240Z,82.31
2022-09-28T17:35:06.651Z,82.62
2022-09-28T17:37:45.315Z,82.56
2022-09-28T17:40:28.326Z,82.65
2022-09-28T17:42:57.560Z,82.93
2022-09-28T17:45:28.457Z,82.93
2022-09-28T17:47:55.680Z,83.15
2022-09-28T17:50:25.956Z,83.07
2022-09-28T17:52:54.098Z,83.28
2022-09-28T17:55:28.664Z,83.24
2022-09-28T17:57:58.337Z,83.45
2022-09-28T18:00:27.781Z,83.51
2022-09-28T18:03:01.473Z,83.45
2022-09-28T18:05:30.301Z,83.68
2022-09-28T18:07:58.986Z,83.94
2022-09-28T18:10:27.600Z,83.81
2022-09-28T18:13:21.035Z,83.75
2022-09-28T18:15:53.156Z,83.67
2022-09-28T18:18:22.415Z,83.70
2022-09-28T18:20:54.161Z,83.70
2022-09-28T18:23:21.144Z,83.77
2022-09-28T18:25:49.239Z,84.02
2022-09-28T18:28:17.321Z,84.21
2022-09-28T18:30:50.444Z,84.07
2022-09-28T18:33:19.121Z,84.09
2022-09-28T18:35:54.630Z,84.04
2022-09-28T18:38:23.081Z,84.26
2022-09-28T18:40:51.109Z,84.50
2022-09-28T18:43:48.855Z,84.60
2022-09-28T18:46:18.240Z,84.39
2022-09-28T18:48:45.101Z,84.71
2022-09-28T18:51:16.575Z,84.62
2022-09-28T18:53:45.265Z,84.84
2022-09-28T18:56:19.661Z,84.80
2022-09-28T18:58:48.057Z,84.80
2022-09-28T19:01:35.440Z,84.85
2022-09-28T19:04:06.400Z,84.66
2022-09-28T19:06:34.925Z,84.84
2022-09-28T19:09:05.714Z,84.88
2022-09-28T19:11:41.165Z,84.76
2022-09-28T19:17:05.658Z,84.90
2022-09-28T19:19:59.050Z,84.93
2022-09-28T19:22:27.138Z,84.95
2022-09-28T19:25:00.539Z,84.83
2022-09-28T19:27:29.082Z,84.90
2022-09-28T19:29:57.060Z,85.11
2022-09-28T19:32:25.074Z,85.19
2022-09-28T19:34:53.047Z,85.27
2022-09-28T19:37:46.665Z,85.37
2022-09-28T19:40:15.236Z,85.56
2022-09-28T19:42:43.105Z,85.63
2022-09-28T19:48:03.237Z,85.77
2022-09-28T19:50:31.800Z,85.79
2022-09-28T19:53:01.576Z,85.93
2022-09-28T19:55:41.240Z,85.90
2022-09-28T19:58:13.059Z,85.83
2022-09-28T20:00:41.171Z,86.07
2022-09-28T20:03:13.254Z,86.04
2022-09-28T20:08:44.109Z,85.94
2022-09-28T20:11:13.031Z,86.10
2022-09-28T20:13:41.158Z,86.04
2022-09-28T20:16:11.740Z,85.87
2022-09-28T20:18:43.594Z,85.98
2022-09-28T20:21:18.161Z,86.00
2022-09-28T20:23:51.386Z,86.07
2022-09-28T20:26:19.616Z,86.07
2022-09-28T20:29:13.259Z,86.09
2022-09-28T20:31:41.684Z,86.00
2022-09-28T20:34:09.776Z,85.96
2022-09-28T20:36:37.038Z,86.22
2022-09-28T20:39:05.057Z,86.34
2022-09-28T20:41:36.518Z,86.32
2022-09-28T20:44:06.467Z,86.00
2022-09-28T20:46:35.890Z,86.04
2022-09-28T20:49:04.049Z,86.03
2022-09-28T20:51:31.954Z,86.01
2022-09-28T20:53:59.693Z,86.42
2022-09-28T20:56:37.394Z,86.37
2022-09-28T20:59:07.867Z,86.61
2022-09-28T21:01:35.461Z,86.78
2022-09-28T21:04:04.759Z,86.67
2022-09-28T21:06:42.014Z,87.10
2022-09-28T21:12:03.242Z,86.72
2022-09-28T21:14:31.204Z,86.52
2022-09-28T21:17:24.883Z,86.54
2022-09-28T21:19:53.075Z,86.68
2022-09-28T21:22:21.033Z,86.78
2022-09-28T21:24:49.059Z,86.88
2022-09-28T21:27:17.062Z,86.76
2022-09-28T21:29:45.052Z,86.86
2022-09-28T21:32:37.068Z,86.58
2022-09-28T21:35:05.540Z,86.20
2022-09-28T21:37:33.212Z,86.42
2022-09-28T21:40:02.530Z,86.38
2022-09-28T21:42:31.040Z,86.63
2022-09-28T21:44:59.631Z,86.64
2022-09-28T21:47:27.067Z,86.84
2022-09-28T21:49:55.118Z,86.68
2022-09-28T21:52:23.157Z,87.24
2022-09-28T21:54:51.093Z,86.53
2022-09-28T21:57:19.052Z,86.62
2022-09-28T21:59:47.406Z,86.28
2022-09-28T22:02:15.077Z,86.47
2022-09-28T22:04:43.085Z,86.38
2022-09-28T22:07:11.075Z,86.27
2022-09-28T22:09:39.311Z,86.32
2022-09-28T22:12:11.745Z,86.41
2022-09-28T22:14:50.319Z,86.23
2022-09-28T22:17:17.222Z,86.27
2022-09-28T22:22:37.041Z,86.33
2022-09-28T22:25:10.508Z,86.13
2022-09-28T22:27:37.276Z,86.05
2022-09-28T22:30:05.577Z,86.15
2022-09-28T22:32:33.094Z,86.43
2022-09-28T22:35:01.172Z,86.35
2022-09-28T22:37:33.545Z,86.10
2022-09-28T22:40:25.362Z,86.24
2022-09-28T22:43:17.261Z,86.15
2022-09-28T22:45:45.576Z,86.32
2022-09-28T22:48:13.373Z,86.46
2022-09-28T22:50:51.197Z,86.52
2022-09-28T22:53:19.296Z,86.21
2022-09-28T22:55:47.085Z,86.31
2022-09-28T22:58:15.038Z,86.39
2022-09-28T23:00:48.318Z,86.16
2022-09-28T23:03:20.540Z,86.15
2022-09-28T23:05:55.945Z,86.42
2022-09-28T23:08:28.727Z,86.17
2022-09-28T23:10:57.084Z,86.01
2022-09-28T23:13:25.285Z,86.03
2022-09-28T23:16:05.242Z,86.00
2022-09-28T23:18:36.058Z,85.92
2022-09-28T23:21:11.223Z,86.10
2022-09-28T23:26:33.118Z,85.94
2022-09-28T23:29:01.214Z,85.80
2022-09-28T23:31:33.195Z,85.91
2022-09-28T23:34:06.529Z,86.34
2022-09-28T23:36:40.255Z,86.03
2022-09-28T23:39:07.065Z,85.90
2022-09-28T23:41:35.118Z,85.94
2022-09-28T23:44:03.415Z,85.94
2022-09-28T23:46:31.825Z,86.12
2022-09-28T23:48:59.052Z,85.88
2022-09-28T23:51:27.173Z,85.73
2022-09-28T23:53:55.114Z,85.86
2022-09-28T23:56:23.263Z,85.80
2022-09-28T23:58:51.130Z,86.20
